Las Vegas, NV (89103)

6:32 AM PDT on October 22, 2014 (GMT -0700)
Spanish Oaks | Change Station
CLOSE
Current Station
Personal Weather Station
Location: Las Vegas, NV
Elevation: 2152 ft
Nearby Weather Stations

Elev 2152 ft 36.15 °N, 115.19 °W | Updated 14 seconds ago

Partly Cloudy
Partly Cloudy
59.5 °F
Feels Like 59.5 °F
N
2.2
Wind Variable Wind from SW
Gusts 3.9 mph

Today
High -- | Low -- °F
--% Chance of Precip.
Yesterday
High -- | Low -- °F
Precip. -- in
6:54 AM 5:55 PM
Waning Crescent, 2% visible
Pressure 29.88 in
Visibility 10.0 miles
Clouds Few 25000 ft
Dew Point 24 °F
Humidity 25%
Rainfall 0.00 in
Snow Depth Not available.
UV 0 out of 12
Pollen 4.50 out of 12
Ozone Good
PM2.5 Moderate
Flu Activity No Activity
METAR KLAS 221256Z 23005KT 10SM FEW250 17/M03 A2993 RMK AO2 SLP116 T01671028

More Conditions Fewer Conditions

Pressure 29.88 in
Visibility 10.0 miles
Clouds Few 25000 ft
Dew Point 24 °F
Humidity 25%
Rainfall 0.00 in
Snow Depth Not available.
UV 0 out of 12
Pollen 4.50 out of 12
Ozone Good
PM2.5 Moderate
Flu Activity No Activity
METAR KLAS 221256Z 23005KT 10SM FEW250 17/M03 A2993 RMK AO2 SLP116 T01671028

More Conditions Fewer Conditions

10-Day Weather Forecast

Almanac

Astronomy

Oct. 22, 2014 Rise Set
Actual Time 6:54 AM PDT 5:55 PM PDT
Civil Twilight 6:27 AM PDT 6:21 PM PDT
Nautical Twilight 5:58 AM PDT 6:51 PM PDT
Astronomical Twilight 5:28 AM PDT 7:21 PM PDT
Moon 5:41 AM PDT 5:23 PM PDT
Length of Visible Light 11h 54m
Length of Day
11h 01m
Tomorrow will be 2m 7s shorter.
Waning Crescent, 2% of the Moon is Illuminated
Today
Waning Crescent
Oct 23
New
Oct 30
First Quarter
Nov 6
Full
Nov 14
Last Quarter

Today's Extremes

State Highs State Lows

Community

WunderPhotos

Upload Photos

1,763,918 photos uploaded!

Nearby

Air Quality

  Air Quality AQ Index Pollutant
Yesterday Good
OZONE
Yesterday Good
PM10
Current Moderate
PM2.5
Current Good
OZONE
Wednesday Good
PM10
Wednesday Good
OZONE
Thursday Good
PM10
Thursday Good
OZONE
Friday Good
PM10
Friday Good
OZONE
Saturday Good
PM10
Saturday Good
OZONE
Sunday Good
PM10
Sunday Good
OZONE

Snow Depth

Station Depth Elevation
Ward Mountain 0 in 9200 ft
Diamond Peak 1 in 8000 ft
Big Creek Summit 1 in 8700 ft
Corral Canyon 0 in 8500 ft
Green Mountain 1 in 8000 ft

Earthquake Activity

City Distance Mag. Time & Date
No recent earthquake activity has been reported nearby.
Minimum magnitude displayed is 2.5.

Coastal Water Temperatures

Place Temperature
No Stations Reporting

Nearby Weather Stations